sensor_id;sensor_type;location;lat;lon;timestamp;P1;P2;P0
54869;PMS5003;40756;-37.950;145.008;2022-08-30T00:00:52;2;2;
54869;PMS5003;40756;-37.950;145.008;2022-08-30T00:03:22;3;3;
54869;PMS5003;40756;-37.950;145.008;2022-08-30T00:05:52;3;3;
54869;PMS5003;40756;-37.950;145.008;2022-08-30T00:08:23;2;2;
54869;PMS5003;40756;-37.950;145.008;2022-08-30T00:10:53;1;1;
54869;PMS5003;40756;-37.950;145.008;2022-08-30T00:13:22;1;1;
54869;PMS5003;40756;-37.950;145.008;2022-08-30T00:15:52;2;2;
54869;PMS5003;40756;-37.950;145.008;2022-08-30T00:18:22;4;3;
54869;PMS5003;40756;-37.950;145.008;2022-08-30T00:20:51;1;1;
54869;PMS5003;40756;-37.950;145.008;2022-08-30T00:23:21;1;1;
54869;PMS5003;40756;-37.950;145.008;2022-08-30T00:25:51;0;0;
54869;PMS5003;40756;-37.950;145.008;2022-08-30T00:28:21;0;0;
54869;PMS5003;40756;-37.950;145.008;2022-08-30T00:30:51;0;0;
54869;PMS5003;40756;-37.950;145.008;2022-08-30T00:33:21;1;1;
54869;PMS5003;40756;-37.950;145.008;2022-08-30T00:35:51;3;3;
54869;PMS5003;40756;-37.950;145.008;2022-08-30T00:38:21;0;0;
54869;PMS5003;40756;-37.950;145.008;2022-08-30T00:40:50;1;1;
54869;PMS5003;40756;-37.950;145.008;2022-08-30T00:43:21;0;0;
54869;PMS5003;40756;-37.950;145.008;2022-08-30T00:45:52;0;0;
54869;PMS5003;40756;-37.950;145.008;2022-08-30T00:48:22;1;1;
54869;PMS5003;40756;-37.950;145.008;2022-08-30T00:50:53;0;0;
54869;PMS5003;40756;-37.950;145.008;2022-08-30T00:53:27;0;0;
54869;PMS5003;40756;-37.950;145.008;2022-08-30T00:56:01;0;0;
54869;PMS5003;40756;-37.950;145.008;2022-08-30T00:58:33;0;0;
54869;PMS5003;40756;-37.950;145.008;2022-08-30T01:01:05;0;0;
54869;PMS5003;40756;-37.950;145.008;2022-08-30T01:03:35;0;0;
54869;PMS5003;40756;-37.950;145.008;2022-08-30T01:06:06;0;0;
54869;PMS5003;40756;-37.950;145.008;2022-08-30T01:08:37;0;0;
54869;PMS5003;40756;-37.950;145.008;2022-08-30T01:11:07;0;0;
54869;PMS5003;40756;-37.950;145.008;2022-08-30T01:13:37;0;0;
54869;PMS5003;40756;-37.950;145.008;2022-08-30T01:16:07;0;0;
54869;PMS5003;40756;-37.950;145.008;2022-08-30T01:18:37;0;0;
54869;PMS5003;40756;-37.950;145.008;2022-08-30T01:21:09;0;0;
54869;PMS5003;40756;-37.950;145.008;2022-08-30T01:23:47;0;0;
54869;PMS5003;40756;-37.950;145.008;2022-08-30T01:26:20;0;0;
54869;PMS5003;40756;-37.950;145.008;2022-08-30T01:28:53;0;0;
54869;PMS5003;40756;-37.950;145.008;2022-08-30T01:31:27;0;0;
54869;PMS5003;40756;-37.950;145.008;2022-08-30T01:33:57;0;0;
54869;PMS5003;40756;-37.950;145.008;2022-08-30T01:36:27;0;0;
54869;PMS5003;40756;-37.950;145.008;2022-08-30T01:38:58;0;0;
54869;PMS5003;40756;-37.950;145.008;2022-08-30T01:41:29;0;0;
54869;PMS5003;40756;-37.950;145.008;2022-08-30T01:44:02;1;1;
54869;PMS5003;40756;-37.950;145.008;2022-08-30T01:46:34;0;0;
54869;PMS5003;40756;-37.950;145.008;2022-08-30T01:49:06;0;0;
54869;PMS5003;40756;-37.950;145.008;2022-08-30T01:51:38;0;0;
54869;PMS5003;40756;-37.950;145.008;2022-08-30T01:54:08;0;0;
54869;PMS5003;40756;-37.950;145.008;2022-08-30T01:56:37;0;0;
54869;PMS5003;40756;-37.950;145.008;2022-08-30T01:59:07;1;1;
54869;PMS5003;40756;-37.950;145.008;2022-08-30T02:01:37;1;1;
54869;PMS5003;40756;-37.950;145.008;2022-08-30T02:04:09;0;0;
54869;PMS5003;40756;-37.950;145.008;2022-08-30T02:06:39;0;0;
54869;PMS5003;40756;-37.950;145.008;2022-08-30T02:09:09;1;1;
54869;PMS5003;40756;-37.950;145.008;2022-08-30T02:11:40;0;0;
54869;PMS5003;40756;-37.950;145.008;2022-08-30T02:14:10;1;1;
54869;PMS5003;40756;-37.950;145.008;2022-08-30T02:16:39;0;0;
54869;PMS5003;40756;-37.950;145.008;2022-08-30T02:19:09;1;1;
54869;PMS5003;40756;-37.950;145.008;2022-08-30T02:21:39;0;0;
54869;PMS5003;40756;-37.950;145.008;2022-08-30T02:24:08;1;1;
54869;PMS5003;40756;-37.950;145.008;2022-08-30T02:26:38;2;2;
54869;PMS5003;40756;-37.950;145.008;2022-08-30T02:29:08;0;0;
54869;PMS5003;40756;-37.950;145.008;2022-08-30T02:31:38;2;1;
54869;PMS5003;40756;-37.950;145.008;2022-08-30T02:34:08;1;1;
54869;PMS5003;40756;-37.950;145.008;2022-08-30T02:36:38;1;1;
54869;PMS5003;40756;-37.950;145.008;2022-08-30T02:39:08;2;2;
54869;PMS5003;40756;-37.950;145.008;2022-08-30T02:41:39;2;2;
54869;PMS5003;40756;-37.950;145.008;2022-08-30T02:44:09;1;1;
54869;PMS5003;40756;-37.950;145.008;2022-08-30T02:46:38;2;2;
54869;PMS5003;40756;-37.950;145.008;2022-08-30T02:49:08;2;2;
54869;PMS5003;40756;-37.950;145.008;2022-08-30T02:51:38;2;2;
54869;PMS5003;40756;-37.950;145.008;2022-08-30T02:54:07;1;1;
54869;PMS5003;40756;-37.950;145.008;2022-08-30T02:56:37;2;2;
54869;PMS5003;40756;-37.950;145.008;2022-08-30T02:59:07;3;3;
54869;PMS5003;40756;-37.950;145.008;2022-08-30T03:01:36;4;3;
54869;PMS5003;40756;-37.950;145.008;2022-08-30T03:04:06;2;2;
54869;PMS5003;40756;-37.950;145.008;2022-08-30T03:06:36;3;3;
54869;PMS5003;40756;-37.950;145.008;2022-08-30T03:09:05;3;2;
54869;PMS5003;40756;-37.950;145.008;2022-08-30T03:11:36;2;2;
54869;PMS5003;40756;-37.950;145.008;2022-08-30T03:14:05;2;2;
54869;PMS5003;40756;-37.950;145.008;2022-08-30T03:16:35;2;2;
54869;PMS5003;40756;-37.950;145.008;2022-08-30T03:19:05;1;1;
54869;PMS5003;40756;-37.950;145.008;2022-08-30T03:21:37;1;1;
54869;PMS5003;40756;-37.950;145.008;2022-08-30T03:24:06;1;0;
54869;PMS5003;40756;-37.950;145.008;2022-08-30T03:26:35;1;1;
54869;PMS5003;40756;-37.950;145.008;2022-08-30T03:29:05;1;1;
54869;PMS5003;40756;-37.950;145.008;2022-08-30T03:31:35;1;1;
54869;PMS5003;40756;-37.950;145.008;2022-08-30T03:34:05;2;2;
54869;PMS5003;40756;-37.950;145.008;2022-08-30T03:36:35;1;1;
54869;PMS5003;40756;-37.950;145.008;2022-08-30T03:39:05;1;1;
54869;PMS5003;40756;-37.950;145.008;2022-08-30T03:41:35;3;2;
54869;PMS5003;40756;-37.950;145.008;2022-08-30T03:44:05;3;3;
54869;PMS5003;40756;-37.950;145.008;2022-08-30T03:46:35;3;3;
54869;PMS5003;40756;-37.950;145.008;2022-08-30T03:49:04;2;2;
54869;PMS5003;40756;-37.950;145.008;2022-08-30T03:51:34;2;2;
54869;PMS5003;40756;-37.950;145.008;2022-08-30T03:54:04;2;2;
54869;PMS5003;40756;-37.950;145.008;2022-08-30T03:56:33;4;3;
54869;PMS5003;40756;-37.950;145.008;2022-08-30T03:59:03;4;4;
54869;PMS5003;40756;-37.950;145.008;2022-08-30T04:01:34;3;2;
54869;PMS5003;40756;-37.950;145.008;2022-08-30T04:04:03;5;3;
54869;PMS5003;40756;-37.950;145.008;2022-08-30T04:06:33;2;2;
54869;PMS5003;40756;-37.950;145.008;2022-08-30T04:09:03;3;3;
54869;PMS5003;40756;-37.950;145.008;2022-08-30T04:11:32;3;3;
54869;PMS5003;40756;-37.950;145.008;2022-08-30T04:14:03;5;4;
54869;PMS5003;40756;-37.950;145.008;2022-08-30T04:16:32;3;3;
54869;PMS5003;40756;-37.950;145.008;2022-08-30T04:19:02;4;4;
54869;PMS5003;40756;-37.950;145.008;2022-08-30T04:21:31;3;3;
54869;PMS5003;40756;-37.950;145.008;2022-08-30T04:24:01;3;3;
54869;PMS5003;40756;-37.950;145.008;2022-08-30T04:26:31;3;3;
54869;PMS5003;40756;-37.950;145.008;2022-08-30T04:29:00;3;3;
54869;PMS5003;40756;-37.950;145.008;2022-08-30T04:31:30;4;3;
54869;PMS5003;40756;-37.950;145.008;2022-08-30T04:34:00;3;3;
54869;PMS5003;40756;-37.950;145.008;2022-08-30T04:36:30;2;2;
54869;PMS5003;40756;-37.950;145.008;2022-08-30T04:39:00;3;3;
54869;PMS5003;40756;-37.950;145.008;2022-08-30T04:41:30;5;5;
54869;PMS5003;40756;-37.950;145.008;2022-08-30T04:44:00;3;3;
54869;PMS5003;40756;-37.950;145.008;2022-08-30T04:46:30;6;6;
54869;PMS5003;40756;-37.950;145.008;2022-08-30T04:49:00;3;3;
54869;PMS5003;40756;-37.950;145.008;2022-08-30T04:51:29;1;1;
54869;PMS5003;40756;-37.950;145.008;2022-08-30T04:53:59;3;3;
54869;PMS5003;40756;-37.950;145.008;2022-08-30T04:56:29;4;3;
54869;PMS5003;40756;-37.950;145.008;2022-08-30T04:58:59;2;2;
54869;PMS5003;40756;-37.950;145.008;2022-08-30T05:01:29;5;5;
54869;PMS5003;40756;-37.950;145.008;2022-08-30T05:03:59;2;2;
54869;PMS5003;40756;-37.950;145.008;2022-08-30T05:06:29;4;4;
54869;PMS5003;40756;-37.950;145.008;2022-08-30T05:08:59;3;3;
54869;PMS5003;40756;-37.950;145.008;2022-08-30T05:11:28;4;3;
54869;PMS5003;40756;-37.950;145.008;2022-08-30T05:13:58;4;3;
54869;PMS5003;40756;-37.950;145.008;2022-08-30T05:16:28;2;2;
54869;PMS5003;40756;-37.950;145.008;2022-08-30T05:18:58;4;4;
54869;PMS5003;40756;-37.950;145.008;2022-08-30T05:21:27;6;4;
54869;PMS5003;40756;-37.950;145.008;2022-08-30T05:23:57;5;5;
54869;PMS5003;40756;-37.950;145.008;2022-08-30T05:26:29;7;5;
54869;PMS5003;40756;-37.950;145.008;2022-08-30T05:28:59;2;2;
54869;PMS5003;40756;-37.950;145.008;2022-08-30T05:31:29;2;2;
54869;PMS5003;40756;-37.950;145.008;2022-08-30T05:34:02;5;4;
54869;PMS5003;40756;-37.950;145.008;2022-08-30T05:36:33;2;2;
54869;PMS5003;40756;-37.950;145.008;2022-08-30T05:39:05;2;2;
54869;PMS5003;40756;-37.950;145.008;2022-08-30T05:41:35;7;6;
54869;PMS5003;40756;-37.950;145.008;2022-08-30T05:44:05;5;4;
54869;PMS5003;40756;-37.950;145.008;2022-08-30T05:46:36;5;4;
54869;PMS5003;40756;-37.950;145.008;2022-08-30T05:49:06;2;2;
54869;PMS5003;40756;-37.950;145.008;2022-08-30T05:51:35;2;2;
54869;PMS5003;40756;-37.950;145.008;2022-08-30T05:54:05;4;4;
54869;PMS5003;40756;-37.950;145.008;2022-08-30T05:56:35;2;2;
54869;PMS5003;40756;-37.950;145.008;2022-08-30T05:59:06;3;3;
54869;PMS5003;40756;-37.950;145.008;2022-08-30T06:01:37;3;3;
54869;PMS5003;40756;-37.950;145.008;2022-08-30T06:04:08;2;1;
54869;PMS5003;40756;-37.950;145.008;2022-08-30T06:06:40;2;1;
54869;PMS5003;40756;-37.950;145.008;2022-08-30T06:09:11;2;2;
54869;PMS5003;40756;-37.950;145.008;2022-08-30T06:11:41;3;2;
54869;PMS5003;40756;-37.950;145.008;2022-08-30T06:14:12;5;4;
54869;PMS5003;40756;-37.950;145.008;2022-08-30T06:16:42;3;3;
54869;PMS5003;40756;-37.950;145.008;2022-08-30T06:19:13;4;3;
54869;PMS5003;40756;-37.950;145.008;2022-08-30T06:21:43;4;3;
54869;PMS5003;40756;-37.950;145.008;2022-08-30T06:24:16;2;2;
54869;PMS5003;40756;-37.950;145.008;2022-08-30T06:26:46;3;3;
54869;PMS5003;40756;-37.950;145.008;2022-08-30T06:29:16;1;1;
54869;PMS5003;40756;-37.950;145.008;2022-08-30T06:31:47;3;2;
54869;PMS5003;40756;-37.950;145.008;2022-08-30T06:34:17;2;2;
54869;PMS5003;40756;-37.950;145.008;2022-08-30T06:36:47;3;2;
54869;PMS5003;40756;-37.950;145.008;2022-08-30T06:39:16;1;1;
54869;PMS5003;40756;-37.950;145.008;2022-08-30T06:41:46;3;2;
54869;PMS5003;40756;-37.950;145.008;2022-08-30T06:44:16;3;2;
54869;PMS5003;40756;-37.950;145.008;2022-08-30T06:46:46;2;1;
54869;PMS5003;40756;-37.950;145.008;2022-08-30T06:49:16;4;3;
54869;PMS5003;40756;-37.950;145.008;2022-08-30T06:51:45;4;3;
54869;PMS5003;40756;-37.950;145.008;2022-08-30T06:54:15;2;2;
54869;PMS5003;40756;-37.950;145.008;2022-08-30T06:56:44;5;3;
54869;PMS5003;40756;-37.950;145.008;2022-08-30T06:59:14;1;1;
54869;PMS5003;40756;-37.950;145.008;2022-08-30T07:01:43;3;2;
54869;PMS5003;40756;-37.950;145.008;2022-08-30T07:04:13;2;0;
54869;PMS5003;40756;-37.950;145.008;2022-08-30T07:06:43;5;3;
54869;PMS5003;40756;-37.950;145.008;2022-08-30T07:09:12;3;2;
54869;PMS5003;40756;-37.950;145.008;2022-08-30T07:11:42;3;3;
54869;PMS5003;40756;-37.950;145.008;2022-08-30T07:14:12;3;3;
54869;PMS5003;40756;-37.950;145.008;2022-08-30T07:16:41;3;3;
54869;PMS5003;40756;-37.950;145.008;2022-08-30T07:19:12;2;2;
54869;PMS5003;40756;-37.950;145.008;2022-08-30T07:21:42;2;2;
54869;PMS5003;40756;-37.950;145.008;2022-08-30T07:24:12;4;3;
54869;PMS5003;40756;-37.950;145.008;2022-08-30T07:26:42;4;3;
54869;PMS5003;40756;-37.950;145.008;2022-08-30T07:29:13;4;3;
54869;PMS5003;40756;-37.950;145.008;2022-08-30T07:31:44;3;3;
54869;PMS5003;40756;-37.950;145.008;2022-08-30T07:34:13;4;4;
54869;PMS5003;40756;-37.950;145.008;2022-08-30T07:36:44;3;3;
54869;PMS5003;40756;-37.950;145.008;2022-08-30T07:39:14;6;5;
54869;PMS5003;40756;-37.950;145.008;2022-08-30T07:41:44;7;5;
54869;PMS5003;40756;-37.950;145.008;2022-08-30T07:44:13;5;5;
54869;PMS5003;40756;-37.950;145.008;2022-08-30T07:46:43;6;4;
54869;PMS5003;40756;-37.950;145.008;2022-08-30T07:49:13;6;4;
54869;PMS5003;40756;-37.950;145.008;2022-08-30T07:51:42;4;4;
54869;PMS5003;40756;-37.950;145.008;2022-08-30T07:54:13;4;2;
54869;PMS5003;40756;-37.950;145.008;2022-08-30T07:56:42;5;4;
54869;PMS5003;40756;-37.950;145.008;2022-08-30T07:59:12;2;2;
54869;PMS5003;40756;-37.950;145.008;2022-08-30T08:01:42;1;1;
54869;PMS5003;40756;-37.950;145.008;2022-08-30T08:04:11;3;3;
54869;PMS5003;40756;-37.950;145.008;2022-08-30T08:06:41;3;3;
54869;PMS5003;40756;-37.950;145.008;2022-08-30T08:09:11;5;5;
54869;PMS5003;40756;-37.950;145.008;2022-08-30T08:11:40;2;2;
54869;PMS5003;40756;-37.950;145.008;2022-08-30T08:14:10;1;1;
54869;PMS5003;40756;-37.950;145.008;2022-08-30T08:16:40;6;5;
54869;PMS5003;40756;-37.950;145.008;2022-08-30T08:19:10;6;3;
54869;PMS5003;40756;-37.950;145.008;2022-08-30T08:21:40;8;8;
54869;PMS5003;40756;-37.950;145.008;2022-08-30T08:24:10;4;4;
54869;PMS5003;40756;-37.950;145.008;2022-08-30T08:26:40;2;2;
54869;PMS5003;40756;-37.950;145.008;2022-08-30T08:29:10;3;3;
54869;PMS5003;40756;-37.950;145.008;2022-08-30T08:31:39;2;2;
54869;PMS5003;40756;-37.950;145.008;2022-08-30T08:34:09;3;1;
54869;PMS5003;40756;-37.950;145.008;2022-08-30T08:36:39;3;3;
54869;PMS5003;40756;-37.950;145.008;2022-08-30T08:39:10;2;2;
54869;PMS5003;40756;-37.950;145.008;2022-08-30T08:41:43;3;1;
54869;PMS5003;40756;-37.950;145.008;2022-08-30T08:44:24;2;2;
54869;PMS5003;40756;-37.950;145.008;2022-08-30T08:47:05;6;5;
54869;PMS5003;40756;-37.950;145.008;2022-08-30T08:49:43;4;4;
54869;PMS5003;40756;-37.950;145.008;2022-08-30T08:52:17;5;4;
54869;PMS5003;40756;-37.950;145.008;2022-08-30T08:54:54;9;9;
54869;PMS5003;40756;-37.950;145.008;2022-08-30T08:57:26;12;11;
54869;PMS5003;40756;-37.950;145.008;2022-08-30T09:00:00;6;5;
54869;PMS5003;40756;-37.950;145.008;2022-08-30T09:02:33;2;2;
54869;PMS5003;40756;-37.950;145.008;2022-08-30T09:05:07;2;2;
54869;PMS5003;40756;-37.950;145.008;2022-08-30T09:07:39;2;1;
54869;PMS5003;40756;-37.950;145.008;2022-08-30T09:10:14;3;3;
54869;PMS5003;40756;-37.950;145.008;2022-08-30T09:12:44;3;3;
54869;PMS5003;40756;-37.950;145.008;2022-08-30T09:15:16;5;3;
54869;PMS5003;40756;-37.950;145.008;2022-08-30T09:17:49;3;3;
54869;PMS5003;40756;-37.950;145.008;2022-08-30T09:20:26;4;3;
54869;PMS5003;40756;-37.950;145.008;2022-08-30T09:22:59;5;3;
54869;PMS5003;40756;-37.950;145.008;2022-08-30T09:25:50;3;2;
54869;PMS5003;40756;-37.950;145.008;2022-08-30T09:28:21;3;3;
54869;PMS5003;40756;-37.950;145.008;2022-08-30T09:31:00;3;3;
54869;PMS5003;40756;-37.950;145.008;2022-08-30T09:33:32;4;2;
54869;PMS5003;40756;-37.950;145.008;2022-08-30T09:36:13;2;2;
54869;PMS5003;40756;-37.950;145.008;2022-08-30T09:38:56;1;1;
54869;PMS5003;40756;-37.950;145.008;2022-08-30T09:41:34;3;2;
54869;PMS5003;40756;-37.950;145.008;2022-08-30T09:44:07;2;2;
54869;PMS5003;40756;-37.950;145.008;2022-08-30T09:46:45;3;2;
54869;PMS5003;40756;-37.950;145.008;2022-08-30T09:49:33;3;2;
54869;PMS5003;40756;-37.950;145.008;2022-08-30T09:52:10;2;1;
54869;PMS5003;40756;-37.950;145.008;2022-08-30T09:54:56;1;1;
54869;PMS5003;40756;-37.950;145.008;2022-08-30T09:57:36;2;2;
54869;PMS5003;40756;-37.950;145.008;2022-08-30T10:00:16;2;2;
54869;PMS5003;40756;-37.950;145.008;2022-08-30T10:02:50;2;2;
54869;PMS5003;40756;-37.950;145.008;2022-08-30T10:05:28;5;4;
54869;PMS5003;40756;-37.950;145.008;2022-08-30T10:08:07;1;1;
54869;PMS5003;40756;-37.950;145.008;2022-08-30T10:10:47;1;1;
54869;PMS5003;40756;-37.950;145.008;2022-08-30T10:13:28;2;2;
54869;PMS5003;40756;-37.950;145.008;2022-08-30T10:16:12;0;0;
54869;PMS5003;40756;-37.950;145.008;2022-08-30T10:18:56;1;1;
54869;PMS5003;40756;-37.950;145.008;2022-08-30T10:21:34;3;2;
54869;PMS5003;40756;-37.950;145.008;2022-08-30T10:24:09;2;2;
54869;PMS5003;40756;-37.950;145.008;2022-08-30T10:26:42;3;3;
54869;PMS5003;40756;-37.950;145.008;2022-08-30T10:29:18;7;6;
54869;PMS5003;40756;-37.950;145.008;2022-08-30T10:31:57;7;6;
54869;PMS5003;40756;-37.950;145.008;2022-08-30T10:34:34;10;8;
54869;PMS5003;40756;-37.950;145.008;2022-08-30T10:37:09;5;5;
54869;PMS5003;40756;-37.950;145.008;2022-08-30T10:39:47;4;4;
54869;PMS5003;40756;-37.950;145.008;2022-08-30T10:42:21;5;4;
54869;PMS5003;40756;-37.950;145.008;2022-08-30T10:44:56;3;3;
54869;PMS5003;40756;-37.950;145.008;2022-08-30T10:47:35;3;2;
54869;PMS5003;40756;-37.950;145.008;2022-08-30T10:50:11;3;3;
54869;PMS5003;40756;-37.950;145.008;2022-08-30T10:52:46;4;2;
54869;PMS5003;40756;-37.950;145.008;2022-08-30T10:55:22;4;3;
54869;PMS5003;40756;-37.950;145.008;2022-08-30T10:57:58;0;0;
54869;PMS5003;40756;-37.950;145.008;2022-08-30T11:00:29;3;2;
54869;PMS5003;40756;-37.950;145.008;2022-08-30T11:04:44;5;3;
54869;PMS5003;40756;-37.950;145.008;2022-08-30T11:07:01;5;3;
54869;PMS5003;40756;-37.950;145.008;2022-08-30T11:09:48;2;2;
54869;PMS5003;40756;-37.950;145.008;2022-08-30T11:12:35;2;1;
54869;PMS5003;40756;-37.950;145.008;2022-08-30T11:15:12;3;3;
54869;PMS5003;40756;-37.950;145.008;2022-08-30T11:17:45;2;2;
54869;PMS5003;40756;-37.950;145.008;2022-08-30T11:20:30;1;1;
54869;PMS5003;40756;-37.950;145.008;2022-08-30T11:23:34;2;1;
54869;PMS5003;40756;-37.950;145.008;2022-08-30T11:26:05;5;3;
54869;PMS5003;40756;-37.950;145.008;2022-08-30T11:29:12;3;3;
54869;PMS5003;40756;-37.950;145.008;2022-08-30T11:32:02;3;2;
54869;PMS5003;40756;-37.950;145.008;2022-08-30T11:35:40;1;1;
54869;PMS5003;40756;-37.950;145.008;2022-08-30T11:38:16;2;2;
54869;PMS5003;40756;-37.950;145.008;2022-08-30T11:41:35;3;1;
54869;PMS5003;40756;-37.950;145.008;2022-08-30T11:44:32;3;2;
54869;PMS5003;40756;-37.950;145.008;2022-08-30T11:47:35;2;1;
54869;PMS5003;40756;-37.950;145.008;2022-08-30T11:50:15;3;3;
54869;PMS5003;40756;-37.950;145.008;2022-08-30T11:52:50;1;1;
54869;PMS5003;40756;-37.950;145.008;2022-08-30T11:55:32;2;2;
54869;PMS5003;40756;-37.950;145.008;2022-08-30T11:58:12;3;3;
54869;PMS5003;40756;-37.950;145.008;2022-08-30T12:01:12;1;1;
54869;PMS5003;40756;-37.950;145.008;2022-08-30T12:03:44;1;1;
54869;PMS5003;40756;-37.950;145.008;2022-08-30T12:06:55;1;1;
54869;PMS5003;40756;-37.950;145.008;2022-08-30T12:10:01;1;1;
54869;PMS5003;40756;-37.950;145.008;2022-08-30T12:12:50;2;1;
54869;PMS5003;40756;-37.950;145.008;2022-08-30T12:15:26;2;2;
54869;PMS5003;40756;-37.950;145.008;2022-08-30T12:16:06;2;2;
54869;PMS5003;40756;-37.950;145.008;2022-08-30T12:18:40;2;2;
54869;PMS5003;40756;-37.950;145.008;2022-08-30T12:21:22;1;1;
54869;PMS5003;40756;-37.950;145.008;2022-08-30T12:23:57;1;1;
54869;PMS5003;40756;-37.950;145.008;2022-08-30T12:26:32;1;1;
54869;PMS5003;40756;-37.950;145.008;2022-08-30T12:29:06;1;1;
54869;PMS5003;40756;-37.950;145.008;2022-08-30T12:31:40;3;1;
54869;PMS5003;40756;-37.950;145.008;2022-08-30T12:34:17;6;5;
54869;PMS5003;40756;-37.950;145.008;2022-08-30T12:36:54;4;3;
54869;PMS5003;40756;-37.950;145.008;2022-08-30T12:39:27;1;0;
54869;PMS5003;40756;-37.950;145.008;2022-08-30T12:42:10;2;2;
54869;PMS5003;40756;-37.950;145.008;2022-08-30T12:44:45;5;5;
54869;PMS5003;40756;-37.950;145.008;2022-08-30T12:47:19;4;3;
54869;PMS5003;40756;-37.950;145.008;2022-08-30T12:49:53;2;1;
54869;PMS5003;40756;-37.950;145.008;2022-08-30T12:52:28;2;1;
54869;PMS5003;40756;-37.950;145.008;2022-08-30T12:55:09;1;1;
54869;PMS5003;40756;-37.950;145.008;2022-08-30T12:57:43;1;1;
54869;PMS5003;40756;-37.950;145.008;2022-08-30T13:00:25;1;0;
54869;PMS5003;40756;-37.950;145.008;2022-08-30T13:02:58;0;0;
54869;PMS5003;40756;-37.950;145.008;2022-08-30T13:05:33;1;0;
54869;PMS5003;40756;-37.950;145.008;2022-08-30T13:08:12;1;1;
54869;PMS5003;40756;-37.950;145.008;2022-08-30T13:10:51;2;1;
54869;PMS5003;40756;-37.950;145.008;2022-08-30T13:13:32;0;0;
54869;PMS5003;40756;-37.950;145.008;2022-08-30T13:16:07;1;1;
54869;PMS5003;40756;-37.950;145.008;2022-08-30T13:18:47;1;1;
54869;PMS5003;40756;-37.950;145.008;2022-08-30T13:21:20;1;0;
54869;PMS5003;40756;-37.950;145.008;2022-08-30T13:23:55;1;1;
54869;PMS5003;40756;-37.950;145.008;2022-08-30T13:26:26;0;0;
54869;PMS5003;40756;-37.950;145.008;2022-08-30T13:28:59;1;1;
54869;PMS5003;40756;-37.950;145.008;2022-08-30T13:31:31;0;0;
54869;PMS5003;40756;-37.950;145.008;2022-08-30T13:34:00;0;0;
54869;PMS5003;40756;-37.950;145.008;2022-08-30T13:36:31;2;1;
54869;PMS5003;40756;-37.950;145.008;2022-08-30T13:39:02;1;1;
54869;PMS5003;40756;-37.950;145.008;2022-08-30T13:41:32;1;1;
54869;PMS5003;40756;-37.950;145.008;2022-08-30T13:44:03;0;0;
54869;PMS5003;40756;-37.950;145.008;2022-08-30T13:46:34;0;0;
54869;PMS5003;40756;-37.950;145.008;2022-08-30T13:49:06;1;0;
54869;PMS5003;40756;-37.950;145.008;2022-08-30T13:51:39;1;1;
54869;PMS5003;40756;-37.950;145.008;2022-08-30T13:54:09;1;1;
54869;PMS5003;40756;-37.950;145.008;2022-08-30T13:56:39;2;1;
54869;PMS5003;40756;-37.950;145.008;2022-08-30T13:59:09;1;1;
54869;PMS5003;40756;-37.950;145.008;2022-08-30T14:01:38;2;1;
54869;PMS5003;40756;-37.950;145.008;2022-08-30T14:04:08;3;1;
54869;PMS5003;40756;-37.950;145.008;2022-08-30T14:06:38;1;1;
54869;PMS5003;40756;-37.950;145.008;2022-08-30T14:09:08;7;6;
54869;PMS5003;40756;-37.950;145.008;2022-08-30T14:11:38;4;3;
54869;PMS5003;40756;-37.950;145.008;2022-08-30T14:14:08;2;1;
54869;PMS5003;40756;-37.950;145.008;2022-08-30T14:16:38;3;1;
54869;PMS5003;40756;-37.950;145.008;2022-08-30T14:19:09;1;1;
54869;PMS5003;40756;-37.950;145.008;2022-08-30T14:21:39;2;0;
54869;PMS5003;40756;-37.950;145.008;2022-08-30T14:24:11;0;0;
54869;PMS5003;40756;-37.950;145.008;2022-08-30T14:26:41;2;2;
54869;PMS5003;40756;-37.950;145.008;2022-08-30T14:29:12;0;0;
54869;PMS5003;40756;-37.950;145.008;2022-08-30T14:31:43;0;0;
54869;PMS5003;40756;-37.950;145.008;2022-08-30T14:34:13;1;0;
54869;PMS5003;40756;-37.950;145.008;2022-08-30T14:36:44;0;0;
54869;PMS5003;40756;-37.950;145.008;2022-08-30T14:39:14;2;2;
54869;PMS5003;40756;-37.950;145.008;2022-08-30T14:41:46;1;1;
54869;PMS5003;40756;-37.950;145.008;2022-08-30T14:44:18;0;0;
54869;PMS5003;40756;-37.950;145.008;2022-08-30T14:46:50;1;1;
54869;PMS5003;40756;-37.950;145.008;2022-08-30T14:49:20;1;1;
54869;PMS5003;40756;-37.950;145.008;2022-08-30T14:51:51;1;1;
54869;PMS5003;40756;-37.950;145.008;2022-08-30T14:54:22;2;1;
54869;PMS5003;40756;-37.950;145.008;2022-08-30T14:56:54;2;1;
54869;PMS5003;40756;-37.950;145.008;2022-08-30T14:59:24;1;1;
54869;PMS5003;40756;-37.950;145.008;2022-08-30T15:01:54;1;1;
54869;PMS5003;40756;-37.950;145.008;2022-08-30T15:04:23;2;2;
54869;PMS5003;40756;-37.950;145.008;2022-08-30T15:06:53;2;1;
54869;PMS5003;40756;-37.950;145.008;2022-08-30T15:09:23;1;1;
54869;PMS5003;40756;-37.950;145.008;2022-08-30T15:11:53;0;0;
54869;PMS5003;40756;-37.950;145.008;2022-08-30T15:14:24;5;3;
54869;PMS5003;40756;-37.950;145.008;2022-08-30T15:16:55;1;0;
54869;PMS5003;40756;-37.950;145.008;2022-08-30T15:19:25;2;2;
54869;PMS5003;40756;-37.950;145.008;2022-08-30T15:21:57;0;0;
54869;PMS5003;40756;-37.950;145.008;2022-08-30T15:24:29;1;0;
54869;PMS5003;40756;-37.950;145.008;2022-08-30T15:27:00;0;0;
54869;PMS5003;40756;-37.950;145.008;2022-08-30T15:29:30;3;1;
54869;PMS5003;40756;-37.950;145.008;2022-08-30T15:32:00;0;0;
54869;PMS5003;40756;-37.950;145.008;2022-08-30T15:34:31;2;2;
54869;PMS5003;40756;-37.950;145.008;2022-08-30T15:37:00;1;0;
54869;PMS5003;40756;-37.950;145.008;2022-08-30T15:39:30;1;1;
54869;PMS5003;40756;-37.950;145.008;2022-08-30T15:42:00;0;0;
54869;PMS5003;40756;-37.950;145.008;2022-08-30T15:44:30;2;0;
54869;PMS5003;40756;-37.950;145.008;2022-08-30T15:47:00;1;1;
54869;PMS5003;40756;-37.950;145.008;2022-08-30T15:49:30;1;0;
54869;PMS5003;40756;-37.950;145.008;2022-08-30T15:52:00;1;1;
54869;PMS5003;40756;-37.950;145.008;2022-08-30T15:54:31;0;0;
54869;PMS5003;40756;-37.950;145.008;2022-08-30T15:57:00;1;0;
54869;PMS5003;40756;-37.950;145.008;2022-08-30T15:59:30;0;0;
54869;PMS5003;40756;-37.950;145.008;2022-08-30T16:02:00;1;1;
54869;PMS5003;40756;-37.950;145.008;2022-08-30T16:04:30;0;0;
54869;PMS5003;40756;-37.950;145.008;2022-08-30T16:07:00;1;1;
54869;PMS5003;40756;-37.950;145.008;2022-08-30T16:09:30;0;0;
54869;PMS5003;40756;-37.950;145.008;2022-08-30T16:12:00;1;1;
54869;PMS5003;40756;-37.950;145.008;2022-08-30T16:14:30;1;1;
54869;PMS5003;40756;-37.950;145.008;2022-08-30T16:17:01;1;1;
54869;PMS5003;40756;-37.950;145.008;2022-08-30T16:19:31;1;0;
54869;PMS5003;40756;-37.950;145.008;2022-08-30T16:22:00;1;1;
54869;PMS5003;40756;-37.950;145.008;2022-08-30T16:24:31;1;1;
54869;PMS5003;40756;-37.950;145.008;2022-08-30T16:27:01;0;0;
54869;PMS5003;40756;-37.950;145.008;2022-08-30T16:29:31;1;1;
54869;PMS5003;40756;-37.950;145.008;2022-08-30T16:32:00;0;0;
54869;PMS5003;40756;-37.950;145.008;2022-08-30T16:34:30;0;0;
54869;PMS5003;40756;-37.950;145.008;2022-08-30T16:37:00;0;0;